Time;durP1;ratioP1;P1;durP2;ratioP2;P2;SDS_P1;SDS_P2;PMS_P1;PMS_P2;Temp;Humidity;BMP_temperature;BMP_pressure;BME280_temperature;BME280_humidity;BME280_pressure;Samples;Min_cycle;Max_cycle;Signal;HPM_P1;HPM_P2
2022/12/03 00:00:16;;;;;;;76.15;33.63;;;;;;;5.35;47.33;102302.81;4925292;28;99728;-71
2022/12/03 00:02:43;;;;;;;77.90;33.17;;;;;;;4.93;48.32;102303.19;4926086;28;99091;-71
2022/12/03 00:05:10;;;;;;;73.28;31.73;;;;;;;5.13;47.64;102294.69;4928215;28;97135;-71
2022/12/03 00:07:37;;;;;;;80.70;35.00;;;;;;;5.25;47.47;102304.44;4921396;28;96798;-70
2022/12/03 00:10:05;;;;;;;78.78;34.63;;;;;;;5.11;48.20;102298.19;4922243;28;99037;-72
2022/12/03 00:12:31;;;;;;;72.57;33.47;;;;;;;5.10;47.88;102296.41;4925000;28;99173;-71
2022/12/03 00:14:57;;;;;;;76.65;32.97;;;;;;;5.03;47.57;102298.09;4930117;28;96812;-71
2022/12/03 00:17:24;;;;;;;75.47;32.78;;;;;;;4.89;47.92;102299.66;4921236;28;97053;-72
2022/12/03 00:19:52;;;;;;;76.88;33.60;;;;;;;5.08;47.71;102300.75;4927577;28;98843;-72
2022/12/03 00:22:18;;;;;;;78.05;33.55;;;;;;;5.05;47.87;102299.00;4919032;28;100832;-71
2022/12/03 00:24:45;;;;;;;74.85;34.20;;;;;;;5.11;47.60;102295.56;4928571;28;96738;-70
2022/12/03 00:27:12;;;;;;;71.28;30.58;;;;;;;5.02;47.98;102292.81;4931353;28;96781;-70
2022/12/03 00:29:38;;;;;;;70.38;33.00;;;;;;;4.99;47.72;102291.03;4927949;28;98743;-71
2022/12/03 00:32:05;;;;;;;74.05;32.30;;;;;;;5.03;47.79;102300.72;4926932;28;99111;-70
2022/12/03 00:34:31;;;;;;;67.03;30.67;;;;;;;4.89;47.45;102297.03;4926108;28;96867;-73
2022/12/03 00:36:59;;;;;;;70.47;31.88;;;;;;;5.05;48.00;102293.75;4929803;28;96839;-72
2022/12/03 00:39:25;;;;;;;70.20;31.85;;;;;;;4.92;48.12;102291.84;4926214;28;98264;-71
2022/12/03 00:41:52;;;;;;;69.43;31.73;;;;;;;5.07;47.38;102297.25;4925626;28;99132;-71
2022/12/03 00:44:18;;;;;;;68.65;31.15;;;;;;;5.20;46.85;102288.66;4919491;28;97034;-72
2022/12/03 00:46:45;;;;;;;66.60;31.58;;;;;;;5.26;47.08;102287.84;4914642;28;97162;-70
2022/12/03 00:49:11;;;;;;;64.93;32.80;;;;;;;5.36;46.84;102286.22;4925853;28;98896;-70
2022/12/03 00:51:38;;;;;;;73.38;33.08;;;;;;;5.30;46.85;102288.78;4924098;28;98879;-72
2022/12/03 00:54:06;;;;;;;75.47;32.70;;;;;;;5.30;47.27;102281.81;4924185;28;96775;-72
2022/12/03 00:56:32;;;;;;;71.88;31.73;;;;;;;5.27;46.98;102284.38;4925986;28;97227;-70
2022/12/03 00:58:59;;;;;;;76.57;34.10;;;;;;;5.24;46.64;102280.84;4923499;28;99181;-71
2022/12/03 01:01:25;;;;;;;73.25;33.65;;;;;;;5.26;47.01;102282.59;4923552;28;98964;-70
2022/12/03 01:03:52;;;;;;;71.93;34.33;;;;;;;5.17;46.59;102275.56;4916701;28;96786;-70
2022/12/03 01:06:18;;;;;;;77.35;34.10;;;;;;;4.87;47.15;102285.66;4924886;28;99110;-71
2022/12/03 01:08:45;;;;;;;70.57;34.20;;;;;;;5.16;47.03;102280.78;4928089;28;99135;-70
2022/12/03 01:13:53;;;;;;;73.82;32.95;;;;;;;5.01;47.33;102288.44;4921726;28;96861;-72
2022/12/03 01:16:19;;;;;;;73.40;34.72;;;;;;;4.93;47.46;102292.69;4919500;28;97242;-72
2022/12/03 01:18:46;;;;;;;71.05;31.40;;;;;;;4.94;47.76;102290.09;4920988;28;98967;-70
2022/12/03 01:21:13;;;;;;;73.47;32.83;;;;;;;4.90;47.61;102288.31;4924371;28;97718;-71
2022/12/03 01:23:39;;;;;;;72.28;32.42;;;;;;;4.91;47.23;102289.22;4927479;28;96942;-71
2022/12/03 01:26:06;;;;;;;71.97;34.25;;;;;;;4.54;47.88;102288.72;4919104;28;98531;-71
2022/12/03 01:28:34;;;;;;;74.35;32.58;;;;;;;4.52;48.50;102289.56;4918096;28;99471;-70
2022/12/03 01:33:44;;;;;;;69.03;32.90;;;;;;;4.87;48.01;102290.91;4924223;28;97274;-70
2022/12/03 01:36:11;;;;;;;79.18;35.45;;;;;;;4.92;47.57;102294.47;4924164;28;97437;-70
2022/12/03 01:38:37;;;;;;;73.43;34.05;;;;;;;5.04;47.44;102281.50;4925790;28;99301;-72
2022/12/03 01:41:03;;;;;;;82.93;34.40;;;;;;;5.16;47.07;102294.75;4921551;28;99123;-71
2022/12/03 01:43:30;;;;;;;78.40;35.10;;;;;;;5.14;47.22;102287.72;4924921;28;97782;-70
2022/12/03 01:45:58;;;;;;;71.13;33.00;;;;;;;5.29;46.73;102287.91;4924304;28;96892;-71
2022/12/03 01:48:24;;;;;;;72.80;34.00;;;;;;;5.17;46.74;102286.03;4925323;28;99064;-71
2022/12/03 01:50:51;;;;;;;80.43;34.95;;;;;;;5.26;46.43;102281.72;4929039;28;98786;-71
2022/12/03 01:53:18;;;;;;;80.38;36.00;;;;;;;5.18;47.04;102277.31;4923793;28;97696;-71
2022/12/03 01:55:46;;;;;;;75.85;34.38;;;;;;;5.07;47.12;102286.78;4918324;28;96987;-70
2022/12/03 01:58:14;;;;;;;78.10;34.72;;;;;;;5.35;46.90;102279.22;4919283;28;98989;-70
2022/12/03 02:00:41;;;;;;;79.88;33.58;;;;;;;5.41;45.96;102271.41;4921785;28;99150;-71
2022/12/03 02:03:15;;;;;;;74.53;34.83;;;;;;;5.27;47.19;102276.50;4922263;28;96889;-73
2022/12/03 02:05:41;;;;;;;71.22;33.00;;;;;;;5.20;46.77;102272.94;4918174;28;96906;-70
2022/12/03 02:08:30;;;;;;;71.88;34.67;;;;;;;5.33;46.00;102273.06;4918874;28;98936;-72
2022/12/03 02:10:58;;;;;;;74.53;34.50;;;;;;;5.17;46.93;102272.94;4926296;28;99390;-71
2022/12/03 02:13:24;;;;;;;74.60;34.10;;;;;;;5.36;46.92;102276.63;4928008;28;97870;-71
2022/12/03 02:15:51;;;;;;;77.25;35.90;;;;;;;5.19;46.86;102279.03;4926764;28;96898;-70
2022/12/03 02:18:19;;;;;;;76.55;34.95;;;;;;;5.19;46.49;102281.66;4927709;28;99316;-71
2022/12/03 02:21:01;;;;;;;77.75;34.42;;;;;;;5.27;46.56;102275.63;4924980;28;99016;-71
2022/12/03 02:23:35;;;;;;;79.72;34.33;;;;;;;5.13;46.70;102275.47;4922243;28;98082;-71
2022/12/03 02:26:04;;;;;;;77.45;33.88;;;;;;;4.94;47.23;102284.00;4925171;28;96847;-71
2022/12/03 02:28:31;;;;;;;69.88;33.00;;;;;;;4.97;46.91;102281.41;4922787;28;99253;-71
2022/12/03 02:30:57;;;;;;;70.55;32.88;;;;;;;4.99;47.13;102277.94;4924378;28;97974;-71
2022/12/03 02:33:24;;;;;;;77.57;34.15;;;;;;;5.15;47.29;102277.25;4917097;28;98034;-70
2022/12/03 02:35:50;;;;;;;75.20;34.10;;;;;;;5.28;46.65;102280.91;4920553;28;96848;-72
2022/12/03 02:38:23;;;;;;;76.97;35.67;;;;;;;5.28;46.64;102275.66;4927034;28;101102;-71
2022/12/03 02:40:53;;;;;;;73.60;33.17;;;;;;;5.32;46.44;102274.81;4919133;28;98862;-71
2022/12/03 02:43:21;;;;;;;75.57;33.28;;;;;;;5.22;46.66;102271.22;4925426;28;97164;-71
2022/12/03 02:45:51;;;;;;;72.50;33.90;;;;;;;5.11;46.50;102278.09;4928852;28;96866;-71
2022/12/03 02:48:20;;;;;;;76.75;33.67;;;;;;;5.11;47.36;102274.59;4930246;28;99315;-73
2022/12/03 02:50:52;;;;;;;70.40;31.60;;;;;;;5.16;46.95;102272.91;4927201;28;99075;-72
2022/12/03 02:53:22;;;;;;;66.93;32.03;;;;;;;5.23;46.42;102272.13;4922346;28;96804;-71
2022/12/03 02:55:51;;;;;;;72.82;31.85;;;;;;;5.16;45.92;102276.41;4932302;28;96872;-71
2022/12/03 02:58:18;;;;;;;70.60;31.77;;;;;;;5.17;46.65;102282.53;4933374;28;99401;-71
2022/12/03 03:00:46;;;;;;;75.40;33.50;;;;;;;5.26;46.66;102273.88;4928186;28;99239;-71
2022/12/03 03:03:13;;;;;;;74.80;33.38;;;;;;;5.06;46.50;102274.53;4926145;28;97802;-73
2022/12/03 03:05:41;;;;;;;74.43;33.00;;;;;;;5.06;46.42;102279.78;4933367;28;97046;-71
2022/12/03 03:08:09;;;;;;;75.90;32.72;;;;;;;5.06;47.15;102271.03;4931877;28;101265;-72
2022/12/03 03:10:38;;;;;;;70.70;32.25;;;;;;;5.05;46.69;102278.03;4926410;28;99008;-71
2022/12/03 03:13:08;;;;;;;73.82;32.05;;;;;;;5.17;46.54;102272.94;4931066;28;100562;-72
2022/12/03 03:15:36;;;;;;;75.57;33.15;;;;;;;5.10;46.93;102281.59;4933367;28;96954;-71
2022/12/03 03:18:05;;;;;;;78.50;33.30;;;;;;;4.97;47.17;102274.44;4931428;28;97769;-76
2022/12/03 03:20:31;;;;;;;74.15;33.85;;;;;;;5.13;46.70;102268.50;4930665;28;98785;-72
2022/12/03 03:23:05;;;;;;;78.72;32.97;;;;;;;5.24;46.96;102267.75;4932691;28;98134;-72
2022/12/03 03:25:32;;;;;;;78.78;33.55;;;;;;;5.15;46.95;102264.16;4928495;28;96826;-72
2022/12/03 03:27:58;;;;;;;77.15;33.25;;;;;;;5.13;46.95;102262.38;4927901;28;99381;-72
2022/12/03 03:30:25;;;;;;;71.38;32.45;;;;;;;4.94;47.11;102266.53;4933820;28;98692;-72
2022/12/03 03:32:51;;;;;;;72.82;32.03;;;;;;;5.05;46.87;102254.47;4932639;28;97465;-72
2022/12/03 03:35:20;;;;;;;73.32;33.13;;;;;;;5.06;47.30;102258.81;4932658;28;97722;-71
2022/12/03 03:37:46;;;;;;;77.47;33.83;;;;;;;5.15;46.83;102258.91;4930140;28;99780;-70
2022/12/03 03:40:14;;;;;;;81.00;33.95;;;;;;;5.24;46.76;102250.28;4934296;28;98897;-72
2022/12/03 03:42:40;;;;;;;78.20;34.83;;;;;;;5.26;46.74;102256.41;4929175;28;96957;-72
2022/12/03 03:45:09;;;;;;;78.75;34.20;;;;;;;5.11;47.24;102246.66;4923070;28;99558;-71
2022/12/03 03:47:35;;;;;;;74.38;34.72;;;;;;;5.20;47.10;102248.47;4933767;28;99411;-71
2022/12/03 03:50:02;;;;;;;76.07;35.33;;;;;;;4.96;46.99;102245.59;4929842;28;99095;-71
2022/12/03 03:52:32;;;;;;;78.90;34.40;;;;;;;5.10;46.76;102244.91;4926029;28;97214;-71
2022/12/03 03:54:59;;;;;;;80.68;33.42;;;;;;;5.19;47.17;102244.97;4926896;28;97278;-71
2022/12/03 03:57:26;;;;;;;75.25;34.88;;;;;;;5.03;47.29;102240.44;4922609;28;99190;-71
2022/12/03 03:59:52;;;;;;;71.25;32.63;;;;;;;5.14;46.84;102243.19;4923161;28;98830;-72
2022/12/03 04:02:20;;;;;;;71.43;32.92;;;;;;;4.96;47.40;102233.38;4916209;28;97268;-71
2022/12/03 04:04:47;;;;;;;74.80;32.42;;;;;;;5.13;46.50;102239.66;4922115;28;98691;-71
2022/12/03 04:07:13;;;;;;;74.88;34.05;;;;;;;5.05;47.09;102238.75;4926102;28;98993;-73
2022/12/03 04:09:41;;;;;;;78.45;32.50;;;;;;;5.10;47.08;102229.19;4917129;28;98682;-72
2022/12/03 04:14:53;;;;;;;72.32;33.55;;;;;;;5.01;47.22;102223.81;4929773;28;98683;-72
2022/12/03 04:17:19;;;;;;;84.20;34.00;;;;;;;5.22;47.11;102221.44;4929277;28;98947;-72
2022/12/03 04:19:45;;;;;;;73.10;34.35;;;;;;;5.09;47.32;102226.53;4927697;28;99069;-71
2022/12/03 04:28:47;;;;;;;70.72;34.47;;;;;;;5.09;47.08;102216.06;4921726;28;97612;-70
2022/12/03 04:30:28;;;;;;;73.85;33.17;;;;;;;5.11;47.47;102214.34;4925132;28;97115;-71
2022/12/03 04:35:44;;;;;;;70.78;33.13;;;;;;;5.22;46.72;102216.19;4921720;28;96907;-71
2022/12/03 04:38:11;;;;;;;77.00;34.17;;;;;;;5.39;46.95;102223.31;4920559;28;99231;-71
2022/12/03 04:43:23;;;;;;;71.82;32.97;;;;;;;5.07;47.02;102217.78;4924668;28;96914;-70
2022/12/03 04:45:49;;;;;;;86.88;34.97;;;;;;;4.98;46.95;102217.69;4922837;28;97851;-71
2022/12/03 04:48:16;;;;;;;74.60;34.22;;;;;;;5.06;46.99;102214.28;4923324;28;99004;-71
2022/12/03 04:50:43;;;;;;;82.70;34.55;;;;;;;4.93;47.76;102215.00;4925510;28;98990;-71
2022/12/03 04:53:09;;;;;;;68.70;31.63;;;;;;;5.12;47.15;102216.94;4926342;28;97020;-70
2022/12/03 04:55:35;;;;;;;67.65;31.95;;;;;;;5.08;47.69;102211.69;4925221;28;97206;-70
2022/12/03 04:58:03;;;;;;;72.28;32.63;;;;;;;5.10;47.14;102212.56;4921617;28;100423;-70
2022/12/03 05:00:30;;;;;;;77.53;32.97;;;;;;;5.09;46.50;102211.69;4927757;28;98809;-71
2022/12/03 05:02:56;;;;;;;73.18;32.90;;;;;;;5.05;46.86;102219.53;4918718;28;97089;-71
2022/12/03 05:05:23;;;;;;;73.20;34.05;;;;;;;5.03;47.35;102202.91;4924696;28;97901;-70
2022/12/03 05:07:49;;;;;;;81.50;33.67;;;;;;;5.04;46.86;102213.41;4923745;28;98169;-72
2022/12/03 05:10:16;;;;;;;70.32;32.45;;;;;;;5.10;47.25;102204.72;4924504;28;99143;-71
2022/12/03 05:12:42;;;;;;;71.68;32.30;;;;;;;5.02;47.44;102201.13;4924059;28;99094;-70
2022/12/03 05:15:11;;;;;;;70.45;32.83;;;;;;;5.04;47.11;102205.53;4925068;28;97743;-72
2022/12/03 05:17:37;;;;;;;66.93;32.17;;;;;;;5.13;47.22;102203.00;4924972;28;98475;-71
2022/12/03 05:22:48;;;;;;;74.65;33.88;;;;;;;5.16;47.02;102196.91;4923539;28;96756;-71
2022/12/03 05:25:14;;;;;;;73.72;33.08;;;;;;;5.16;46.94;102196.91;4925512;28;98704;-72
2022/12/03 05:27:41;;;;;;;75.75;34.45;;;;;;;5.19;46.72;102197.81;4928461;28;99282;-70
2022/12/03 05:30:09;;;;;;;83.38;34.20;;;;;;;5.08;47.47;102199.44;4921433;28;98838;-72
2022/12/03 05:32:37;;;;;;;76.10;34.25;;;;;;;5.14;47.73;102204.75;4923146;28;96875;-70
2022/12/03 05:35:04;;;;;;;69.43;33.15;;;;;;;5.36;47.05;102204.97;4918600;28;96902;-72
2022/12/03 05:37:30;;;;;;;74.32;33.90;;;;;;;5.30;47.69;102205.78;4926830;28;99171;-70
2022/12/03 05:39:57;;;;;;;85.25;35.70;;;;;;;5.17;47.63;102207.41;4927595;28;98147;-71
2022/12/03 05:45:08;;;;;;;80.32;36.55;;;;;;;5.00;49.06;102198.50;4920340;28;97293;-70
2022/12/03 05:47:35;;;;;;;78.63;34.38;;;;;;;5.13;48.64;102195.13;4913614;28;99287;-71
2022/12/03 05:50:03;;;;;;;74.65;34.72;;;;;;;5.03;48.32;102195.03;4922634;28;99080;-72
2022/12/03 05:52:29;;;;;;;79.70;35.88;;;;;;;5.36;49.08;102192.75;4924311;28;97241;-71
2022/12/03 05:54:55;;;;;;;76.88;36.10;;;;;;;5.30;49.05;102190.06;4925466;28;96855;-71
2022/12/03 05:57:22;;;;;;;81.25;35.17;;;;;;;5.27;49.27;102189.13;4928180;28;99430;-71
2022/12/03 05:59:48;;;;;;;82.70;35.90;;;;;;;5.21;50.19;102187.34;4926665;28;99076;-71
2022/12/03 06:02:15;;;;;;;83.15;36.45;;;;;;;5.32;49.17;102196.16;4928394;28;96738;-71
2022/12/03 06:04:41;;;;;;;81.68;34.67;;;;;;;5.36;49.42;102179.63;4920926;28;96986;-72
2022/12/03 06:07:09;;;;;;;87.72;36.25;;;;;;;5.45;49.53;102182.31;4920811;28;101291;-72
2022/12/03 06:09:35;;;;;;;77.30;35.47;;;;;;;5.29;49.94;102188.31;4927266;28;99281;-72
2022/12/03 06:12:01;;;;;;;80.32;35.60;;;;;;;5.12;50.75;102190.75;4924869;28;96711;-72
2022/12/03 06:14:29;;;;;;;83.68;36.35;;;;;;;5.34;50.37;102191.84;4925354;28;98839;-72
2022/12/03 06:16:55;;;;;;;83.38;37.05;;;;;;;5.22;50.38;102197.84;4925196;28;99385;-72
2022/12/03 06:19:21;;;;;;;80.20;37.25;;;;;;;5.14;50.38;102196.88;4926817;28;99029;-72
2022/12/03 06:21:50;;;;;;;84.43;37.30;;;;;;;4.79;53.24;102193.03;4920983;28;96681;-74
2022/12/03 06:24:18;;;;;;;88.55;39.65;;;;;;;4.75;52.51;102192.13;4921385;28;97413;-72
2022/12/03 06:26:45;;;;;;;94.28;40.63;;;;;;;4.74;53.52;102186.84;4921982;28;99289;-72
2022/12/03 06:29:11;;;;;;;87.80;38.60;;;;;;;4.74;53.84;102185.13;4929354;28;98954;-71
2022/12/03 06:31:38;;;;;;;92.80;39.17;;;;;;;4.90;53.13;102190.53;4922326;28;96799;-71
2022/12/03 06:34:04;;;;;;;86.68;37.75;;;;;;;5.00;52.37;102195.88;4927692;28;96887;-70
2022/12/03 06:36:31;;;;;;;84.18;37.53;;;;;;;5.11;51.91;102193.38;4918791;28;98989;-70
2022/12/03 06:38:57;;;;;;;93.40;37.17;;;;;;;5.10;51.87;102192.50;4918251;28;101214;-70
2022/12/03 06:41:25;;;;;;;84.13;35.88;;;;;;;5.15;51.43;102192.53;4929692;28;96942;-71
2022/12/03 06:43:51;;;;;;;81.57;37.78;;;;;;;5.02;51.63;102199.41;4920842;28;96958;-71
2022/12/03 06:46:18;;;;;;;82.97;36.67;;;;;;;5.11;51.32;102190.75;4927608;28;99632;-71
2022/12/03 06:48:44;;;;;;;81.32;37.50;;;;;;;5.10;51.54;102192.50;4927031;28;98968;-71
2022/12/03 06:51:10;;;;;;;84.82;37.65;;;;;;;5.09;51.11;102188.13;4924427;28;96837;-71
2022/12/03 06:53:37;;;;;;;82.28;36.58;;;;;;;4.98;50.97;102189.75;4915357;28;97732;-71
2022/12/03 06:56:04;;;;;;;83.80;36.50;;;;;;;4.97;51.63;102190.63;4921714;28;99378;-71
2022/12/03 06:58:31;;;;;;;81.95;36.60;;;;;;;4.86;52.08;102186.97;4925525;28;101240;-70
2022/12/03 07:00:58;;;;;;;85.22;36.50;;;;;;;4.82;52.11;102185.19;4923472;28;97516;-70
2022/12/03 07:03:24;;;;;;;87.75;37.60;;;;;;;4.76;52.55;102183.41;4922078;28;96785;-73
2022/12/03 07:05:51;;;;;;;92.90;37.55;;;;;;;4.84;52.06;102180.88;4917971;28;99413;-71
2022/12/03 07:08:17;;;;;;;78.50;36.42;;;;;;;4.98;51.83;102181.91;4920634;28;98933;-71
2022/12/03 07:10:44;;;;;;;84.60;37.90;;;;;;;5.04;52.02;102186.31;4922210;28;96819;-71
2022/12/03 07:13:10;;;;;;;88.18;38.33;;;;;;;5.04;52.29;102186.31;4920798;28;96823;-70
2022/12/03 07:15:38;;;;;;;88.22;38.45;;;;;;;4.94;53.04;102187.06;4919321;28;98996;-71
2022/12/03 07:18:05;;;;;;;88.90;39.35;;;;;;;5.00;52.92;102197.59;4925138;28;99775;-71
2022/12/03 07:20:32;;;;;;;95.28;38.22;;;;;;;4.79;53.45;102187.81;4920848;28;97080;-70
2022/12/03 07:22:58;;;;;;;89.75;39.88;;;;;;;5.06;53.14;102193.31;4920710;28;98670;-70
2022/12/03 07:25:25;;;;;;;93.25;38.78;;;;;;;4.75;53.99;102188.63;4923136;28;99640;-70
2022/12/03 07:27:51;;;;;;;96.72;39.25;;;;;;;4.89;54.37;102186.16;4926800;28;99185;-71
2022/12/03 07:30:18;;;;;;;96.88;40.22;;;;;;;4.97;54.28;102181.88;4927964;28;97706;-71
2022/12/03 07:33:02;;;;;;;98.40;39.40;;;;;;;4.97;54.25;102190.63;4927374;28;98576;-72
2022/12/03 07:35:28;;;;;;;96.22;41.80;;;;;;;4.82;54.47;102190.44;4923225;28;99532;-72
2022/12/03 07:37:55;;;;;;;95.00;40.67;;;;;;;4.86;53.67;102186.13;4926697;28;98826;-70
2022/12/03 07:40:21;;;;;;;90.72;39.17;;;;;;;5.06;53.30;102185.44;4926138;28;98709;-71
2022/12/03 07:42:48;;;;;;;86.68;36.15;;;;;;;5.03;53.00;102195.03;4925481;28;96806;-71
2022/12/03 07:45:15;;;;;;;94.07;38.85;;;;;;;5.12;53.04;102188.13;4928991;28;98678;-71
2022/12/03 07:47:41;;;;;;;92.45;39.00;;;;;;;5.19;52.84;102187.31;4925699;28;99352;-71
2022/12/03 07:50:10;;;;;;;87.88;37.92;;;;;;;5.07;52.41;102187.22;4923537;28;98037;-71
2022/12/03 07:52:36;;;;;;;91.43;37.53;;;;;;;4.85;53.32;102192.22;4925714;28;98847;-71
2022/12/03 07:55:03;;;;;;;86.35;37.78;;;;;;;4.74;53.78;102192.97;4922909;28;98851;-71
2022/12/03 07:57:30;;;;;;;84.82;37.10;;;;;;;4.98;52.90;102186.25;4924154;28;99373;-71
2022/12/03 07:59:57;;;;;;;88.82;37.28;;;;;;;4.99;52.76;102188.03;4926108;28;99193;-71
2022/12/03 08:02:23;;;;;;;84.72;36.08;;;;;;;4.98;52.20;102189.75;4925155;28;97384;-72
2022/12/03 08:04:50;;;;;;;85.65;36.38;;;;;;;5.02;51.99;102191.53;4923550;28;101147;-70
2022/12/03 08:07:18;;;;;;;87.82;36.70;;;;;;;4.80;52.18;102179.06;4926891;28;99180;-71
2022/12/03 08:09:44;;;;;;;83.95;37.33;;;;;;;4.98;51.92;102175.78;4929131;28;97128;-72
2022/12/03 08:12:15;;;;;;;79.40;35.60;;;;;;;5.04;51.86;102179.34;4934297;28;97901;-75
2022/12/03 08:14:42;;;;;;;87.93;37.13;;;;;;;5.05;51.80;102167.13;4934694;28;101735;-71
2022/12/03 08:17:11;;;;;;;90.90;37.92;;;;;;;5.07;51.53;102181.97;4927515;28;98703;-71
2022/12/03 08:19:38;;;;;;;86.57;36.17;;;;;;;5.20;51.12;102175.09;4927127;28;97182;-70
2022/12/03 08:22:11;;;;;;;88.10;37.25;;;;;;;5.19;51.31;102176.84;4928177;28;96885;-71
2022/12/03 08:24:42;;;;;;;80.07;35.65;;;;;;;5.11;51.43;102170.69;4916225;28;99339;-70
2022/12/03 08:27:16;;;;;;;79.65;36.45;;;;;;;5.10;51.20;102176.78;4921601;28;100876;-71
2022/12/03 08:29:43;;;;;;;87.53;36.60;;;;;;;5.11;51.40;102173.28;4925542;28;96805;-71
2022/12/03 08:32:11;;;;;;;85.93;35.70;;;;;;;5.21;51.29;102169.88;4924400;28;97260;-71
2022/12/03 08:34:39;;;;;;;88.13;37.15;;;;;;;5.04;51.95;102166.25;4921340;28;99413;-72
2022/12/03 08:37:13;;;;;;;87.50;39.25;;;;;;;5.37;51.74;102167.41;4924312;28;99340;-71
2022/12/03 08:39:44;;;;;;;88.43;37.75;;;;;;;5.54;51.14;102164.03;4922239;28;97732;-72
2022/12/03 08:45:30;;;;;;;99.28;37.88;;;;;;;5.37;50.98;102165.66;4921867;28;97304;-71
2022/12/03 08:47:59;;;;;;;85.60;36.90;;;;;;;5.24;52.64;102173.41;4922750;28;98942;-70
2022/12/03 08:50:28;;;;;;;90.97;37.63;;;;;;;5.22;52.13;102170.75;4923976;28;97651;-71
2022/12/03 08:52:57;;;;;;;86.35;36.45;;;;;;;5.12;52.47;102172.41;4926594;28;99213;-74
2022/12/03 08:55:34;;;;;;;83.82;37.33;;;;;;;5.17;53.02;102162.88;4920424;28;99080;-72
2022/12/03 08:58:05;;;;;;;90.72;39.15;;;;;;;5.30;52.43;102169.09;4926021;28;99144;-72
2022/12/03 09:00:32;;;;;;;91.30;37.35;;;;;;;5.28;52.01;102169.94;4923919;28;98531;-71
2022/12/03 09:03:00;;;;;;;85.78;36.38;;;;;;;5.16;52.45;102160.22;4926443;28;96909;-72
2022/12/03 09:05:32;;;;;;;86.97;37.03;;;;;;;5.39;52.10;102166.53;4921572;28;99003;-72
2022/12/03 09:07:58;;;;;;;96.90;39.60;;;;;;;5.37;52.59;102164.78;4925467;28;101503;-72
2022/12/03 09:10:25;;;;;;;96.88;39.13;;;;;;;5.49;53.03;102164.88;4925398;28;96906;-73
2022/12/03 09:12:53;;;;;;;103.47;41.80;;;;;;;5.38;52.92;102170.00;4928202;28;96849;-71
2022/12/03 09:15:19;;;;;;;102.63;39.83;;;;;;;5.47;52.96;102170.09;4916849;28;100744;-71
2022/12/03 09:17:46;;;;;;;101.03;38.80;;;;;;;5.51;52.57;102164.00;4918691;28;99106;-70
2022/12/03 09:20:12;;;;;;;87.47;37.17;;;;;;;5.59;51.72;102169.31;4926428;28;96968;-71
2022/12/03 09:22:39;;;;;;;92.82;39.63;;;;;;;5.57;52.18;102158.84;4929139;28;97059;-71
2022/12/03 09:25:06;;;;;;;101.65;41.53;;;;;;;5.61;52.59;102163.22;4926610;28;98905;-73
2022/12/03 09:27:33;;;;;;;92.93;38.55;;;;;;;5.46;53.37;102160.47;4917415;28;100099;-73
2022/12/03 09:30:00;;;;;;;92.50;38.13;;;;;;;5.78;52.08;102152.84;4922277;28;97173;-70
2022/12/03 09:32:28;;;;;;;94.10;37.85;;;;;;;5.88;51.03;102157.31;4927617;28;97131;-71
2022/12/03 09:34:54;;;;;;;95.32;37.25;;;;;;;6.00;51.44;102148.63;4918338;28;97772;-73
2022/12/03 09:37:21;;;;;;;92.57;38.92;;;;;;;5.99;50.94;102146.88;4921341;28;98858;-71
2022/12/03 09:39:48;;;;;;;91.10;36.45;;;;;;;6.02;51.04;102149.53;4925075;28;97497;-71
2022/12/03 09:42:15;;;;;;;91.38;38.03;;;;;;;6.30;50.34;102143.53;4927052;28;96725;-71
2022/12/03 09:44:42;;;;;;;83.30;36.38;;;;;;;6.41;50.02;102146.22;4918499;28;99110;-72
2022/12/03 09:47:10;;;;;;;89.18;38.33;;;;;;;6.29;50.53;102139.16;4920497;28;98847;-71
2022/12/03 09:49:38;;;;;;;94.20;37.28;;;;;;;6.20;50.54;102147.00;4919281;28;97341;-71
2022/12/03 09:52:06;;;;;;;85.43;37.42;;;;;;;5.79;51.97;102136.22;4922016;28;97325;-73
2022/12/03 09:54:33;;;;;;;91.28;38.30;;;;;;;6.30;50.98;102137.41;4918941;28;100542;-71
2022/12/03 09:57:02;;;;;;;83.72;36.95;;;;;;;6.37;51.20;102133.91;4916612;28;98854;-71
2022/12/03 09:59:32;;;;;;;90.25;36.25;;;;;;;6.02;50.73;102130.28;4922993;28;97381;-71
2022/12/03 10:01:59;;;;;;;90.22;37.38;;;;;;;5.98;50.70;102132.00;4923211;28;97309;-71
2022/12/03 10:04:29;;;;;;;86.53;36.13;;;;;;;5.97;51.26;102125.88;4919037;28;101387;-71
2022/12/03 10:06:57;;;;;;;93.95;37.03;;;;;;;5.79;51.65;102127.47;4925772;28;99086;-72
2022/12/03 10:09:25;;;;;;;93.45;36.83;;;;;;;5.95;51.53;102118.88;4923010;28;97708;-73
2022/12/03 10:11:52;;;;;;;91.63;38.20;;;;;;;5.90;50.72;102113.63;4921444;28;97503;-71
2022/12/03 10:14:19;;;;;;;99.40;39.35;;;;;;;5.71;52.45;102118.72;4918286;28;99225;-73
2022/12/03 10:16:48;;;;;;;93.82;40.17;;;;;;;5.70;51.66;102120.47;4925058;28;99970;-73
2022/12/03 10:19:19;;;;;;;93.18;37.42;;;;;;;5.64;51.89;102119.53;4923238;28;97320;-70
2022/12/03 10:21:47;;;;;;;87.55;36.65;;;;;;;5.69;51.22;102116.06;4921243;28;97697;-72
2022/12/03 10:24:20;;;;;;;81.28;35.10;;;;;;;5.52;51.76;102107.19;4912051;28;100690;-72
2022/12/03 10:26:48;;;;;;;93.20;35.00;;;;;;;5.48;51.65;102110.69;4917266;28;99361;-71
2022/12/03 10:29:18;;;;;;;88.28;37.10;;;;;;;5.40;52.20;102113.25;4920747;28;97075;-72
2022/12/03 10:31:45;;;;;;;90.53;35.50;;;;;;;5.42;52.64;102108.91;4920703;28;98941;-71
2022/12/03 10:34:11;;;;;;;92.50;35.67;;;;;;;5.40;51.97;102107.13;4917880;28;99058;-72
2022/12/03 10:36:38;;;;;;;100.82;37.92;;;;;;;5.38;52.95;102106.25;4917994;28;100476;-68
2022/12/03 10:39:14;;;;;;;91.20;35.75;;;;;;;5.32;52.26;102114.91;4921132;28;98362;-66
2022/12/03 10:41:42;;;;;;;92.40;35.00;;;;;;;5.37;52.21;102097.50;4923916;28;99235;-65
2022/12/03 10:44:17;;;;;;;94.47;35.55;;;;;;;5.51;51.94;102102.84;4921529;28;99252;-66
2022/12/03 10:46:45;;;;;;;85.93;34.27;;;;;;;5.46;52.15;102099.28;4926874;28;99212;-66
2022/12/03 10:49:16;;;;;;;95.70;36.05;;;;;;;5.73;50.90;102098.59;4922851;28;97165;-66
2022/12/03 10:51:44;;;;;;;86.70;33.05;;;;;;;5.60;50.70;102095.91;4923142;28;96807;-66
2022/12/03 10:54:22;;;;;;;91.55;35.55;;;;;;;5.51;51.52;102095.00;4923057;28;99024;-67
2022/12/03 10:56:51;;;;;;;93.53;36.15;;;;;;;5.50;51.27;102098.47;4921222;28;98852;-66
2022/12/03 10:59:21;;;;;;;91.40;34.67;;;;;;;5.62;51.27;102093.31;4918810;28;98412;-66
2022/12/03 11:01:49;;;;;;;93.03;35.20;;;;;;;5.66;51.08;102099.44;4917705;28;98327;-65
2022/12/03 11:04:21;;;;;;;102.38;38.63;;;;;;;5.54;51.53;102097.59;4919097;28;99326;-66
2022/12/03 11:06:49;;;;;;;95.75;36.95;;;;;;;5.60;52.16;102093.28;4919802;28;101159;-65
2022/12/03 11:09:21;;;;;;;100.13;37.58;;;;;;;5.68;50.70;102097.69;4921521;28;97797;-66
2022/12/03 11:11:49;;;;;;;96.85;34.42;;;;;;;5.78;50.45;102092.50;4929012;28;96889;-65
2022/12/03 11:14:49;;;;;;;93.07;35.30;;;;;;;5.61;51.09;102088.91;4928365;28;99202;-67
2022/12/03 11:17:45;;;;;;;91.15;33.95;;;;;;;5.61;51.33;102087.19;4922200;28;100222;-65
2022/12/03 11:20:28;;;;;;;83.78;33.05;;;;;;;5.67;51.07;102078.47;4926582;28;96815;-66
2022/12/03 11:22:56;;;;;;;94.53;34.92;;;;;;;5.72;50.69;102078.47;4929686;28;97186;-66
2022/12/03 11:25:50;;;;;;;97.85;35.25;;;;;;;5.63;50.78;102074.06;4928943;28;99101;-67
2022/12/03 11:28:37;;;;;;;92.50;33.67;;;;;;;5.64;51.13;102074.97;4928363;28;99389;-66
2022/12/03 11:31:13;;;;;;;91.65;32.72;;;;;;;5.76;50.69;102067.16;4924961;28;96881;-66
2022/12/03 11:33:42;;;;;;;94.03;33.67;;;;;;;5.64;51.03;102061.84;4924044;28;99287;-66
2022/12/03 11:36:15;;;;;;;93.10;35.40;;;;;;;5.85;50.86;102056.69;4926008;28;99362;-65
2022/12/03 11:38:48;;;;;;;90.38;34.15;;;;;;;5.80;50.60;102047.94;4928395;28;99308;-65
2022/12/03 11:41:18;;;;;;;93.75;34.78;;;;;;;6.01;50.09;102050.69;4926306;28;96999;-66
2022/12/03 11:44:02;;;;;;;92.63;35.42;;;;;;;5.96;50.43;102053.31;4923489;28;97332;-67
2022/12/03 11:46:38;;;;;;;81.18;32.72;;;;;;;6.02;50.24;102051.56;4930455;28;99015;-67
2022/12/03 11:49:23;;;;;;;100.73;37.07;;;;;;;6.04;50.26;102044.59;4928319;28;101211;-66